sensor_id;sensor_type;location;lat;lon;timestamp;P1;durP1;ratioP1;P2;durP2;ratioP2
6999;SDS011;3540;53.242;10.408;2023-07-22T00:00:47;4.17;;;3.73;;
6999;SDS011;3540;53.242;10.408;2023-07-22T00:03:13;4.97;;;4.00;;
6999;SDS011;3540;53.242;10.408;2023-07-22T00:05:41;5.07;;;3.90;;
6999;SDS011;3540;53.242;10.408;2023-07-22T00:08:07;6.73;;;4.07;;
6999;SDS011;3540;53.242;10.408;2023-07-22T00:10:33;4.40;;;3.90;;
6999;SDS011;3540;53.242;10.408;2023-07-22T00:12:59;5.40;;;3.90;;
6999;SDS011;3540;53.242;10.408;2023-07-22T00:15:24;5.00;;;4.00;;
6999;SDS011;3540;53.242;10.408;2023-07-22T00:17:50;4.93;;;4.13;;
6999;SDS011;3540;53.242;10.408;2023-07-22T00:20:16;6.50;;;4.43;;
6999;SDS011;3540;53.242;10.408;2023-07-22T00:22:42;6.10;;;4.27;;
6999;SDS011;3540;53.242;10.408;2023-07-22T00:25:08;5.13;;;4.63;;
6999;SDS011;3540;53.242;10.408;2023-07-22T00:27:39;6.17;;;4.60;;
6999;SDS011;3540;53.242;10.408;2023-07-22T00:30:07;6.83;;;4.83;;
6999;SDS011;3540;53.242;10.408;2023-07-22T00:32:34;6.13;;;4.73;;
6999;SDS011;3540;53.242;10.408;2023-07-22T00:35:02;13.63;;;5.03;;
6999;SDS011;3540;53.242;10.408;2023-07-22T00:37:30;7.43;;;5.27;;
6999;SDS011;3540;53.242;10.408;2023-07-22T00:39:56;7.83;;;5.13;;
6999;SDS011;3540;53.242;10.408;2023-07-22T00:42:21;7.03;;;5.17;;
6999;SDS011;3540;53.242;10.408;2023-07-22T00:44:47;6.97;;;5.00;;
6999;SDS011;3540;53.242;10.408;2023-07-22T00:47:13;8.33;;;4.90;;
6999;SDS011;3540;53.242;10.408;2023-07-22T00:49:39;6.03;;;5.27;;
6999;SDS011;3540;53.242;10.408;2023-07-22T00:52:05;9.50;;;5.90;;
6999;SDS011;3540;53.242;10.408;2023-07-22T00:54:31;7.90;;;5.40;;
6999;SDS011;3540;53.242;10.408;2023-07-22T00:56:57;7.37;;;5.63;;
6999;SDS011;3540;53.242;10.408;2023-07-22T00:59:23;9.00;;;5.77;;
6999;SDS011;3540;53.242;10.408;2023-07-22T01:01:50;8.83;;;5.63;;
6999;SDS011;3540;53.242;10.408;2023-07-22T01:04:15;7.17;;;5.57;;
6999;SDS011;3540;53.242;10.408;2023-07-22T01:06:44;10.60;;;5.97;;
6999;SDS011;3540;53.242;10.408;2023-07-22T01:09:10;7.90;;;6.40;;
6999;SDS011;3540;53.242;10.408;2023-07-22T01:11:36;9.77;;;6.70;;
6999;SDS011;3540;53.242;10.408;2023-07-22T01:14:02;8.53;;;6.13;;
6999;SDS011;3540;53.242;10.408;2023-07-22T01:16:28;8.50;;;6.30;;
6999;SDS011;3540;53.242;10.408;2023-07-22T01:18:55;7.70;;;5.90;;
6999;SDS011;3540;53.242;10.408;2023-07-22T01:21:24;7.83;;;6.07;;
6999;SDS011;3540;53.242;10.408;2023-07-22T01:23:50;10.23;;;6.60;;
6999;SDS011;3540;53.242;10.408;2023-07-22T01:26:16;11.50;;;7.07;;
6999;SDS011;3540;53.242;10.408;2023-07-22T01:28:42;9.73;;;6.80;;
6999;SDS011;3540;53.242;10.408;2023-07-22T01:31:08;9.57;;;6.83;;
6999;SDS011;3540;53.242;10.408;2023-07-22T01:33:34;9.10;;;7.00;;
6999;SDS011;3540;53.242;10.408;2023-07-22T01:36:00;12.13;;;7.40;;
6999;SDS011;3540;53.242;10.408;2023-07-22T01:38:26;10.23;;;7.10;;
6999;SDS011;3540;53.242;10.408;2023-07-22T01:40:52;9.80;;;7.13;;
6999;SDS011;3540;53.242;10.408;2023-07-22T01:43:17;10.87;;;8.07;;
6999;SDS011;3540;53.242;10.408;2023-07-22T01:45:43;12.47;;;7.87;;
6999;SDS011;3540;53.242;10.408;2023-07-22T01:48:09;11.70;;;8.23;;
6999;SDS011;3540;53.242;10.408;2023-07-22T01:50:34;12.20;;;8.40;;
6999;SDS011;3540;53.242;10.408;2023-07-22T01:53:00;10.33;;;7.67;;
6999;SDS011;3540;53.242;10.408;2023-07-22T01:55:26;14.30;;;8.43;;
6999;SDS011;3540;53.242;10.408;2023-07-22T01:57:51;12.27;;;7.93;;
6999;SDS011;3540;53.242;10.408;2023-07-22T02:00:17;14.67;;;8.37;;
6999;SDS011;3540;53.242;10.408;2023-07-22T02:02:43;13.50;;;8.90;;
6999;SDS011;3540;53.242;10.408;2023-07-22T02:05:08;13.43;;;8.40;;
6999;SDS011;3540;53.242;10.408;2023-07-22T02:07:37;14.57;;;8.97;;
6999;SDS011;3540;53.242;10.408;2023-07-22T02:10:03;15.00;;;8.53;;
6999;SDS011;3540;53.242;10.408;2023-07-22T02:12:30;14.83;;;9.30;;
6999;SDS011;3540;53.242;10.408;2023-07-22T02:14:56;14.23;;;9.20;;
6999;SDS011;3540;53.242;10.408;2023-07-22T02:17:22;14.47;;;8.57;;
6999;SDS011;3540;53.242;10.408;2023-07-22T02:19:48;13.87;;;9.90;;
6999;SDS011;3540;53.242;10.408;2023-07-22T02:22:14;14.30;;;9.00;;
6999;SDS011;3540;53.242;10.408;2023-07-22T02:24:40;14.67;;;9.40;;
6999;SDS011;3540;53.242;10.408;2023-07-22T02:27:06;18.30;;;9.23;;
6999;SDS011;3540;53.242;10.408;2023-07-22T02:29:33;15.40;;;9.00;;
6999;SDS011;3540;53.242;10.408;2023-07-22T02:31:59;17.13;;;9.80;;
6999;SDS011;3540;53.242;10.408;2023-07-22T02:34:26;13.43;;;9.37;;
6999;SDS011;3540;53.242;10.408;2023-07-22T02:36:51;15.37;;;9.50;;
6999;SDS011;3540;53.242;10.408;2023-07-22T02:39:17;16.60;;;10.13;;
6999;SDS011;3540;53.242;10.408;2023-07-22T02:41:42;17.90;;;10.30;;
6999;SDS011;3540;53.242;10.408;2023-07-22T02:44:09;16.73;;;9.90;;
6999;SDS011;3540;53.242;10.408;2023-07-22T02:46:34;14.57;;;9.20;;
6999;SDS011;3540;53.242;10.408;2023-07-22T02:49:00;18.10;;;10.33;;
6999;SDS011;3540;53.242;10.408;2023-07-22T02:51:26;16.47;;;9.83;;
6999;SDS011;3540;53.242;10.408;2023-07-22T02:53:51;13.07;;;9.27;;
6999;SDS011;3540;53.242;10.408;2023-07-22T02:56:17;15.27;;;9.70;;
6999;SDS011;3540;53.242;10.408;2023-07-22T02:58:43;16.77;;;9.57;;
6999;SDS011;3540;53.242;10.408;2023-07-22T03:01:08;17.57;;;9.87;;
6999;SDS011;3540;53.242;10.408;2023-07-22T03:03:35;16.00;;;10.10;;
6999;SDS011;3540;53.242;10.408;2023-07-22T03:06:01;15.03;;;10.47;;
6999;SDS011;3540;53.242;10.408;2023-07-22T03:08:28;16.07;;;10.03;;
6999;SDS011;3540;53.242;10.408;2023-07-22T03:10:54;20.70;;;10.07;;
6999;SDS011;3540;53.242;10.408;2023-07-22T03:13:20;20.47;;;10.50;;
6999;SDS011;3540;53.242;10.408;2023-07-22T03:15:46;17.33;;;10.30;;
6999;SDS011;3540;53.242;10.408;2023-07-22T03:18:11;15.60;;;9.63;;
6999;SDS011;3540;53.242;10.408;2023-07-22T03:20:37;18.10;;;10.03;;
6999;SDS011;3540;53.242;10.408;2023-07-22T03:23:06;15.20;;;10.23;;
6999;SDS011;3540;53.242;10.408;2023-07-22T03:25:32;16.83;;;10.23;;
6999;SDS011;3540;53.242;10.408;2023-07-22T03:28:03;19.20;;;9.97;;
6999;SDS011;3540;53.242;10.408;2023-07-22T03:30:30;16.10;;;10.10;;
6999;SDS011;3540;53.242;10.408;2023-07-22T03:32:55;15.80;;;10.10;;
6999;SDS011;3540;53.242;10.408;2023-07-22T03:35:22;18.03;;;10.00;;
6999;SDS011;3540;53.242;10.408;2023-07-22T03:37:48;20.07;;;10.50;;
6999;SDS011;3540;53.242;10.408;2023-07-22T03:40:13;19.47;;;10.33;;
6999;SDS011;3540;53.242;10.408;2023-07-22T03:42:44;19.13;;;10.47;;
6999;SDS011;3540;53.242;10.408;2023-07-22T03:45:14;17.27;;;10.20;;
6999;SDS011;3540;53.242;10.408;2023-07-22T03:47:39;20.50;;;10.90;;
6999;SDS011;3540;53.242;10.408;2023-07-22T03:50:05;22.10;;;10.53;;
6999;SDS011;3540;53.242;10.408;2023-07-22T03:52:32;17.50;;;10.07;;
6999;SDS011;3540;53.242;10.408;2023-07-22T03:54:57;22.10;;;10.87;;
6999;SDS011;3540;53.242;10.408;2023-07-22T03:57:26;18.50;;;10.40;;
6999;SDS011;3540;53.242;10.408;2023-07-22T03:59:53;19.10;;;9.50;;
6999;SDS011;3540;53.242;10.408;2023-07-22T04:02:19;18.57;;;10.43;;
6999;SDS011;3540;53.242;10.408;2023-07-22T04:04:45;20.17;;;10.30;;
6999;SDS011;3540;53.242;10.408;2023-07-22T04:07:10;18.57;;;10.50;;
6999;SDS011;3540;53.242;10.408;2023-07-22T04:09:36;18.20;;;10.87;;
6999;SDS011;3540;53.242;10.408;2023-07-22T04:12:01;19.23;;;10.83;;
6999;SDS011;3540;53.242;10.408;2023-07-22T04:14:27;20.23;;;10.33;;
6999;SDS011;3540;53.242;10.408;2023-07-22T04:16:53;27.70;;;11.20;;
6999;SDS011;3540;53.242;10.408;2023-07-22T04:19:19;23.73;;;10.03;;
6999;SDS011;3540;53.242;10.408;2023-07-22T04:21:44;23.23;;;9.93;;
6999;SDS011;3540;53.242;10.408;2023-07-22T04:24:10;16.77;;;10.17;;
6999;SDS011;3540;53.242;10.408;2023-07-22T04:26:36;19.20;;;10.50;;
6999;SDS011;3540;53.242;10.408;2023-07-22T04:29:01;19.53;;;10.07;;
6999;SDS011;3540;53.242;10.408;2023-07-22T04:31:27;22.00;;;10.17;;
6999;SDS011;3540;53.242;10.408;2023-07-22T04:33:52;14.23;;;9.30;;
6999;SDS011;3540;53.242;10.408;2023-07-22T04:36:18;20.20;;;10.23;;
6999;SDS011;3540;53.242;10.408;2023-07-22T04:38:44;17.07;;;9.30;;
6999;SDS011;3540;53.242;10.408;2023-07-22T04:41:09;20.83;;;10.17;;
6999;SDS011;3540;53.242;10.408;2023-07-22T04:43:35;18.83;;;9.40;;
6999;SDS011;3540;53.242;10.408;2023-07-22T04:46:00;19.20;;;9.20;;
6999;SDS011;3540;53.242;10.408;2023-07-22T04:48:26;18.93;;;9.73;;
6999;SDS011;3540;53.242;10.408;2023-07-22T04:50:52;16.90;;;9.10;;
6999;SDS011;3540;53.242;10.408;2023-07-22T04:53:18;18.13;;;9.53;;
6999;SDS011;3540;53.242;10.408;2023-07-22T04:55:43;17.53;;;9.93;;
6999;SDS011;3540;53.242;10.408;2023-07-22T04:58:09;17.27;;;9.67;;
6999;SDS011;3540;53.242;10.408;2023-07-22T05:00:35;20.63;;;9.40;;
6999;SDS011;3540;53.242;10.408;2023-07-22T05:03:02;17.20;;;9.53;;
6999;SDS011;3540;53.242;10.408;2023-07-22T05:05:28;15.70;;;8.73;;
6999;SDS011;3540;53.242;10.408;2023-07-22T05:07:54;13.83;;;8.03;;
6999;SDS011;3540;53.242;10.408;2023-07-22T05:10:21;14.23;;;8.43;;
6999;SDS011;3540;53.242;10.408;2023-07-22T05:12:47;15.80;;;8.97;;
6999;SDS011;3540;53.242;10.408;2023-07-22T05:15:13;14.63;;;8.93;;
6999;SDS011;3540;53.242;10.408;2023-07-22T05:17:39;15.17;;;8.40;;
6999;SDS011;3540;53.242;10.408;2023-07-22T05:20:04;16.90;;;8.23;;
6999;SDS011;3540;53.242;10.408;2023-07-22T05:22:31;15.10;;;8.70;;
6999;SDS011;3540;53.242;10.408;2023-07-22T05:24:57;15.30;;;8.63;;
6999;SDS011;3540;53.242;10.408;2023-07-22T05:27:24;18.07;;;8.80;;
6999;SDS011;3540;53.242;10.408;2023-07-22T05:29:50;12.13;;;7.90;;
6999;SDS011;3540;53.242;10.408;2023-07-22T05:32:16;17.30;;;8.30;;
6999;SDS011;3540;53.242;10.408;2023-07-22T05:34:41;11.67;;;8.37;;
6999;SDS011;3540;53.242;10.408;2023-07-22T05:37:07;13.07;;;7.30;;
6999;SDS011;3540;53.242;10.408;2023-07-22T05:39:33;14.23;;;8.27;;
6999;SDS011;3540;53.242;10.408;2023-07-22T05:41:58;15.37;;;8.83;;
6999;SDS011;3540;53.242;10.408;2023-07-22T05:44:24;12.10;;;7.73;;
6999;SDS011;3540;53.242;10.408;2023-07-22T05:46:49;12.03;;;8.43;;
6999;SDS011;3540;53.242;10.408;2023-07-22T05:49:15;14.90;;;8.80;;
6999;SDS011;3540;53.242;10.408;2023-07-22T05:51:41;12.93;;;7.73;;
6999;SDS011;3540;53.242;10.408;2023-07-22T05:54:06;16.60;;;8.53;;
6999;SDS011;3540;53.242;10.408;2023-07-22T05:56:32;14.17;;;8.10;;
6999;SDS011;3540;53.242;10.408;2023-07-22T05:58:58;15.40;;;7.73;;
6999;SDS011;3540;53.242;10.408;2023-07-22T06:01:23;15.27;;;8.40;;
6999;SDS011;3540;53.242;10.408;2023-07-22T06:03:52;14.97;;;7.93;;
6999;SDS011;3540;53.242;10.408;2023-07-22T06:06:18;13.13;;;7.33;;
6999;SDS011;3540;53.242;10.408;2023-07-22T06:08:43;13.20;;;7.70;;
6999;SDS011;3540;53.242;10.408;2023-07-22T06:11:09;11.83;;;7.90;;
6999;SDS011;3540;53.242;10.408;2023-07-22T06:13:35;9.77;;;6.60;;
6999;SDS011;3540;53.242;10.408;2023-07-22T06:16:00;12.33;;;7.00;;
6999;SDS011;3540;53.242;10.408;2023-07-22T06:18:26;8.37;;;6.10;;
6999;SDS011;3540;53.242;10.408;2023-07-22T06:20:51;9.47;;;6.07;;
6999;SDS011;3540;53.242;10.408;2023-07-22T06:23:17;11.43;;;6.33;;
6999;SDS011;3540;53.242;10.408;2023-07-22T06:25:43;8.90;;;5.77;;
6999;SDS011;3540;53.242;10.408;2023-07-22T06:28:08;11.47;;;6.57;;
6999;SDS011;3540;53.242;10.408;2023-07-22T06:30:34;11.43;;;6.37;;
6999;SDS011;3540;53.242;10.408;2023-07-22T06:33:00;13.50;;;6.37;;
6999;SDS011;3540;53.242;10.408;2023-07-22T06:35:25;10.43;;;6.40;;
6999;SDS011;3540;53.242;10.408;2023-07-22T06:37:51;8.30;;;5.37;;
6999;SDS011;3540;53.242;10.408;2023-07-22T06:40:17;10.07;;;5.73;;
6999;SDS011;3540;53.242;10.408;2023-07-22T06:42:43;10.23;;;5.77;;
6999;SDS011;3540;53.242;10.408;2023-07-22T06:45:08;8.47;;;5.50;;
6999;SDS011;3540;53.242;10.408;2023-07-22T06:47:35;9.10;;;5.50;;
6999;SDS011;3540;53.242;10.408;2023-07-22T06:50:02;6.57;;;5.40;;
6999;SDS011;3540;53.242;10.408;2023-07-22T06:52:29;7.63;;;5.50;;
6999;SDS011;3540;53.242;10.408;2023-07-22T06:54:55;9.13;;;5.53;;
6999;SDS011;3540;53.242;10.408;2023-07-22T06:57:20;9.77;;;5.47;;
6999;SDS011;3540;53.242;10.408;2023-07-22T06:59:46;10.50;;;5.70;;
6999;SDS011;3540;53.242;10.408;2023-07-22T07:02:12;8.00;;;5.03;;
6999;SDS011;3540;53.242;10.408;2023-07-22T07:04:38;9.93;;;5.03;;
6999;SDS011;3540;53.242;10.408;2023-07-22T07:07:03;7.03;;;4.70;;
6999;SDS011;3540;53.242;10.408;2023-07-22T07:09:29;8.63;;;4.93;;
6999;SDS011;3540;53.242;10.408;2023-07-22T07:11:55;8.97;;;4.90;;
6999;SDS011;3540;53.242;10.408;2023-07-22T07:14:23;6.67;;;4.33;;
6999;SDS011;3540;53.242;10.408;2023-07-22T07:16:52;8.70;;;4.40;;
6999;SDS011;3540;53.242;10.408;2023-07-22T07:19:18;5.20;;;4.20;;
6999;SDS011;3540;53.242;10.408;2023-07-22T07:21:43;5.53;;;3.73;;
6999;SDS011;3540;53.242;10.408;2023-07-22T07:24:09;7.20;;;4.03;;
6999;SDS011;3540;53.242;10.408;2023-07-22T07:26:35;7.70;;;3.97;;
6999;SDS011;3540;53.242;10.408;2023-07-22T07:29:00;7.13;;;3.50;;
6999;SDS011;3540;53.242;10.408;2023-07-22T07:31:26;5.67;;;3.60;;
6999;SDS011;3540;53.242;10.408;2023-07-22T07:33:52;6.53;;;3.90;;
6999;SDS011;3540;53.242;10.408;2023-07-22T07:36:18;5.33;;;3.43;;
6999;SDS011;3540;53.242;10.408;2023-07-22T07:38:44;6.17;;;3.63;;
6999;SDS011;3540;53.242;10.408;2023-07-22T07:41:09;6.80;;;4.07;;
6999;SDS011;3540;53.242;10.408;2023-07-22T07:43:41;3.90;;;3.20;;
6999;SDS011;3540;53.242;10.408;2023-07-22T07:46:15;6.63;;;4.10;;
6999;SDS011;3540;53.242;10.408;2023-07-22T07:48:42;5.40;;;3.43;;
6999;SDS011;3540;53.242;10.408;2023-07-22T07:51:12;5.47;;;3.83;;
6999;SDS011;3540;53.242;10.408;2023-07-22T07:53:39;4.20;;;3.53;;
6999;SDS011;3540;53.242;10.408;2023-07-22T07:56:06;5.13;;;3.33;;
6999;SDS011;3540;53.242;10.408;2023-07-22T07:58:32;4.37;;;2.73;;
6999;SDS011;3540;53.242;10.408;2023-07-22T08:00:58;5.47;;;3.40;;
6999;SDS011;3540;53.242;10.408;2023-07-22T08:03:23;4.03;;;3.20;;
6999;SDS011;3540;53.242;10.408;2023-07-22T08:05:49;3.83;;;2.63;;
6999;SDS011;3540;53.242;10.408;2023-07-22T08:08:15;5.23;;;2.67;;
6999;SDS011;3540;53.242;10.408;2023-07-22T08:10:41;3.87;;;2.67;;
6999;SDS011;3540;53.242;10.408;2023-07-22T08:13:08;2.73;;;2.20;;
6999;SDS011;3540;53.242;10.408;2023-07-22T08:15:33;3.57;;;2.60;;
6999;SDS011;3540;53.242;10.408;2023-07-22T08:17:59;3.17;;;2.70;;
6999;SDS011;3540;53.242;10.408;2023-07-22T08:20:25;3.97;;;2.60;;
6999;SDS011;3540;53.242;10.408;2023-07-22T08:22:50;3.83;;;2.50;;
6999;SDS011;3540;53.242;10.408;2023-07-22T08:25:16;3.60;;;2.67;;
6999;SDS011;3540;53.242;10.408;2023-07-22T08:27:42;3.80;;;2.53;;
6999;SDS011;3540;53.242;10.408;2023-07-22T08:30:07;3.23;;;2.40;;
6999;SDS011;3540;53.242;10.408;2023-07-22T08:32:33;3.40;;;2.17;;
6999;SDS011;3540;53.242;10.408;2023-07-22T08:34:59;4.47;;;2.13;;
6999;SDS011;3540;53.242;10.408;2023-07-22T08:37:24;6.43;;;2.20;;
6999;SDS011;3540;53.242;10.408;2023-07-22T08:39:51;3.10;;;1.97;;
6999;SDS011;3540;53.242;10.408;2023-07-22T08:42:17;3.70;;;2.10;;
6999;SDS011;3540;53.242;10.408;2023-07-22T08:44:44;3.17;;;2.20;;
6999;SDS011;3540;53.242;10.408;2023-07-22T08:47:14;4.80;;;2.30;;
6999;SDS011;3540;53.242;10.408;2023-07-22T08:49:45;3.27;;;1.90;;
6999;SDS011;3540;53.242;10.408;2023-07-22T08:52:15;3.30;;;2.20;;
6999;SDS011;3540;53.242;10.408;2023-07-22T08:54:42;4.30;;;2.03;;
6999;SDS011;3540;53.242;10.408;2023-07-22T08:57:09;3.77;;;2.10;;
6999;SDS011;3540;53.242;10.408;2023-07-22T08:59:37;2.80;;;1.80;;
6999;SDS011;3540;53.242;10.408;2023-07-22T09:02:03;2.70;;;1.90;;
6999;SDS011;3540;53.242;10.408;2023-07-22T09:04:30;3.47;;;1.83;;
6999;SDS011;3540;53.242;10.408;2023-07-22T09:06:56;2.67;;;1.70;;
6999;SDS011;3540;53.242;10.408;2023-07-22T09:09:23;2.50;;;2.00;;
6999;SDS011;3540;53.242;10.408;2023-07-22T09:11:50;1.73;;;1.60;;
6999;SDS011;3540;53.242;10.408;2023-07-22T09:14:17;5.53;;;2.30;;
6999;SDS011;3540;53.242;10.408;2023-07-22T09:16:44;2.70;;;1.83;;
6999;SDS011;3540;53.242;10.408;2023-07-22T09:19:10;2.10;;;1.70;;
6999;SDS011;3540;53.242;10.408;2023-07-22T09:21:36;2.87;;;1.80;;
6999;SDS011;3540;53.242;10.408;2023-07-22T09:24:02;2.27;;;1.80;;
6999;SDS011;3540;53.242;10.408;2023-07-22T09:26:44;2.10;;;1.80;;
6999;SDS011;3540;53.242;10.408;2023-07-22T09:29:10;3.07;;;2.10;;
6999;SDS011;3540;53.242;10.408;2023-07-22T09:31:45;2.83;;;2.00;;
6999;SDS011;3540;53.242;10.408;2023-07-22T09:34:17;2.53;;;1.80;;
6999;SDS011;3540;53.242;10.408;2023-07-22T09:36:53;2.57;;;2.07;;
6999;SDS011;3540;53.242;10.408;2023-07-22T09:39:20;1.70;;;1.60;;
6999;SDS011;3540;53.242;10.408;2023-07-22T09:41:46;2.33;;;1.70;;
6999;SDS011;3540;53.242;10.408;2023-07-22T09:44:12;2.50;;;2.23;;
6999;SDS011;3540;53.242;10.408;2023-07-22T09:46:38;3.23;;;2.20;;
6999;SDS011;3540;53.242;10.408;2023-07-22T09:49:04;3.13;;;2.10;;
6999;SDS011;3540;53.242;10.408;2023-07-22T09:51:35;2.23;;;1.73;;
6999;SDS011;3540;53.242;10.408;2023-07-22T09:54:02;2.70;;;1.80;;
6999;SDS011;3540;53.242;10.408;2023-07-22T09:56:32;2.97;;;1.93;;
6999;SDS011;3540;53.242;10.408;2023-07-22T09:59:07;2.17;;;1.70;;
6999;SDS011;3540;53.242;10.408;2023-07-22T10:01:34;2.27;;;1.87;;
6999;SDS011;3540;53.242;10.408;2023-07-22T10:04:02;3.30;;;1.80;;
6999;SDS011;3540;53.242;10.408;2023-07-22T10:06:30;2.20;;;1.70;;
6999;SDS011;3540;53.242;10.408;2023-07-22T10:08:57;3.27;;;2.00;;
6999;SDS011;3540;53.242;10.408;2023-07-22T10:11:28;3.40;;;1.60;;
6999;SDS011;3540;53.242;10.408;2023-07-22T10:13:57;2.90;;;1.83;;
6999;SDS011;3540;53.242;10.408;2023-07-22T10:16:23;4.10;;;1.83;;
6999;SDS011;3540;53.242;10.408;2023-07-22T10:18:49;2.87;;;1.90;;
6999;SDS011;3540;53.242;10.408;2023-07-22T10:21:16;3.03;;;1.80;;
6999;SDS011;3540;53.242;10.408;2023-07-22T10:23:42;2.90;;;1.73;;
6999;SDS011;3540;53.242;10.408;2023-07-22T10:26:10;2.60;;;1.87;;
6999;SDS011;3540;53.242;10.408;2023-07-22T10:28:39;3.13;;;1.80;;
6999;SDS011;3540;53.242;10.408;2023-07-22T10:31:07;2.60;;;2.10;;
6999;SDS011;3540;53.242;10.408;2023-07-22T10:33:33;3.10;;;2.23;;
6999;SDS011;3540;53.242;10.408;2023-07-22T10:38:32;3.77;;;2.10;;
6999;SDS011;3540;53.242;10.408;2023-07-22T10:40:58;4.67;;;2.23;;
6999;SDS011;3540;53.242;10.408;2023-07-22T10:45:53;3.57;;;2.20;;
6999;SDS011;3540;53.242;10.408;2023-07-22T10:48:20;4.13;;;2.27;;
6999;SDS011;3540;53.242;10.408;2023-07-22T10:50:49;4.23;;;2.37;;
6999;SDS011;3540;53.242;10.408;2023-07-22T10:58:29;4.27;;;2.57;;
6999;SDS011;3540;53.242;10.408;2023-07-22T11:11:56;3.40;;;3.07;;
6999;SDS011;3540;53.242;10.408;2023-07-22T11:14:23;3.30;;;3.00;;
6999;SDS011;3540;53.242;10.408;2023-07-22T11:16:50;3.20;;;2.90;;
6999;SDS011;3540;53.242;10.408;2023-07-22T11:19:17;3.50;;;3.20;;
6999;SDS011;3540;53.242;10.408;2023-07-22T11:21:45;3.47;;;2.90;;
6999;SDS011;3540;53.242;10.408;2023-07-22T11:24:12;5.17;;;2.97;;
6999;SDS011;3540;53.242;10.408;2023-07-22T11:26:38;3.97;;;3.20;;
6999;SDS011;3540;53.242;10.408;2023-07-22T11:29:06;3.97;;;3.20;;
6999;SDS011;3540;53.242;10.408;2023-07-22T11:31:36;4.47;;;3.07;;
6999;SDS011;3540;53.242;10.408;2023-07-22T11:34:08;5.20;;;3.60;;
6999;SDS011;3540;53.242;10.408;2023-07-22T11:36:34;4.80;;;3.60;;
6999;SDS011;3540;53.242;10.408;2023-07-22T11:39:04;4.00;;;3.50;;
6999;SDS011;3540;53.242;10.408;2023-07-22T11:41:40;5.60;;;4.03;;
6999;SDS011;3540;53.242;10.408;2023-07-22T11:44:08;4.50;;;3.77;;
6999;SDS011;3540;53.242;10.408;2023-07-22T11:46:35;4.13;;;3.73;;
6999;SDS011;3540;53.242;10.408;2023-07-22T11:49:01;3.90;;;3.43;;
6999;SDS011;3540;53.242;10.408;2023-07-22T11:51:28;4.60;;;4.10;;
6999;SDS011;3540;53.242;10.408;2023-07-22T11:53:54;6.93;;;4.13;;
6999;SDS011;3540;53.242;10.408;2023-07-22T11:56:20;3.97;;;3.47;;
6999;SDS011;3540;53.242;10.408;2023-07-22T11:58:54;3.97;;;3.57;;
6999;SDS011;3540;53.242;10.408;2023-07-22T12:01:20;4.70;;;3.40;;
6999;SDS011;3540;53.242;10.408;2023-07-22T12:03:47;5.47;;;3.78;;
6999;SDS011;3540;53.242;10.408;2023-07-22T12:06:13;4.32;;;3.85;;
6999;SDS011;3540;53.242;10.408;2023-07-22T12:08:43;3.85;;;3.50;;
6999;SDS011;3540;53.242;10.408;2023-07-22T12:11:31;5.32;;;3.75;;
6999;SDS011;3540;53.242;10.408;2023-07-22T12:16:37;3.92;;;3.58;;
6999;SDS011;3540;53.242;10.408;2023-07-22T12:19:04;8.07;;;4.18;;
6999;SDS011;3540;53.242;10.408;2023-07-22T12:21:30;4.47;;;3.72;;
6999;SDS011;3540;53.242;10.408;2023-07-22T12:23:56;6.25;;;4.00;;
6999;SDS011;3540;53.242;10.408;2023-07-22T12:26:22;5.43;;;4.10;;
6999;SDS011;3540;53.242;10.408;2023-07-22T12:28:48;5.78;;;4.22;;
6999;SDS011;3540;53.242;10.408;2023-07-22T12:31:13;4.57;;;4.18;;
6999;SDS011;3540;53.242;10.408;2023-07-22T12:33:39;6.60;;;4.40;;
6999;SDS011;3540;53.242;10.408;2023-07-22T12:36:04;5.60;;;3.95;;
6999;SDS011;3540;53.242;10.408;2023-07-22T12:38:31;4.90;;;4.38;;
6999;SDS011;3540;53.242;10.408;2023-07-22T12:40:57;5.63;;;4.22;;
6999;SDS011;3540;53.242;10.408;2023-07-22T12:43:22;5.72;;;4.50;;
6999;SDS011;3540;53.242;10.408;2023-07-22T12:45:48;5.07;;;4.00;;
6999;SDS011;3540;53.242;10.408;2023-07-22T12:48:14;4.32;;;3.65;;
6999;SDS011;3540;53.242;10.408;2023-07-22T12:50:40;4.55;;;4.00;;
6999;SDS011;3540;53.242;10.408;2023-07-22T12:53:06;5.25;;;4.18;;
6999;SDS011;3540;53.242;10.408;2023-07-22T12:55:33;4.35;;;3.95;;
6999;SDS011;3540;53.242;10.408;2023-07-22T12:57:59;5.53;;;4.18;;
6999;SDS011;3540;53.242;10.408;2023-07-22T13:00:24;7.35;;;4.63;;
6999;SDS011;3540;53.242;10.408;2023-07-22T13:02:50;5.18;;;4.13;;
6999;SDS011;3540;53.242;10.408;2023-07-22T13:05:15;5.35;;;4.28;;
6999;SDS011;3540;53.242;10.408;2023-07-22T13:07:41;4.72;;;3.70;;
6999;SDS011;3540;53.242;10.408;2023-07-22T13:10:07;4.22;;;3.78;;
6999;SDS011;3540;53.242;10.408;2023-07-22T13:12:36;5.28;;;4.15;;
6999;SDS011;3540;53.242;10.408;2023-07-22T13:15:02;4.25;;;3.85;;
6999;SDS011;3540;53.242;10.408;2023-07-22T13:17:28;5.10;;;4.00;;
6999;SDS011;3540;53.242;10.408;2023-07-22T13:19:54;4.57;;;3.92;;
6999;SDS011;3540;53.242;10.408;2023-07-22T13:22:19;4.18;;;3.78;;
6999;SDS011;3540;53.242;10.408;2023-07-22T13:24:45;4.70;;;3.80;;
6999;SDS011;3540;53.242;10.408;2023-07-22T13:27:11;3.80;;;3.40;;
6999;SDS011;3540;53.242;10.408;2023-07-22T13:29:36;4.72;;;3.45;;
6999;SDS011;3540;53.242;10.408;2023-07-22T13:32:02;5.03;;;4.00;;
6999;SDS011;3540;53.242;10.408;2023-07-22T13:34:29;4.28;;;3.80;;
6999;SDS011;3540;53.242;10.408;2023-07-22T13:36:54;3.78;;;3.38;;
6999;SDS011;3540;53.242;10.408;2023-07-22T13:39:20;4.97;;;3.60;;
6999;SDS011;3540;53.242;10.408;2023-07-22T13:41:46;3.97;;;3.57;;
6999;SDS011;3540;53.242;10.408;2023-07-22T13:44:12;4.07;;;3.57;;
6999;SDS011;3540;53.242;10.408;2023-07-22T13:46:38;4.63;;;3.70;;
6999;SDS011;3540;53.242;10.408;2023-07-22T13:49:03;5.37;;;3.60;;
6999;SDS011;3540;53.242;10.408;2023-07-22T13:51:29;5.30;;;3.97;;
6999;SDS011;3540;53.242;10.408;2023-07-22T13:53:54;4.40;;;3.50;;
6999;SDS011;3540;53.242;10.408;2023-07-22T13:56:22;4.60;;;4.10;;
6999;SDS011;3540;53.242;10.408;2023-07-22T13:58:48;4.73;;;3.73;;
6999;SDS011;3540;53.242;10.408;2023-07-22T14:01:13;4.85;;;3.78;;
6999;SDS011;3540;53.242;10.408;2023-07-22T14:03:39;8.73;;;3.50;;
6999;SDS011;3540;53.242;10.408;2023-07-22T14:06:04;5.53;;;3.47;;
6999;SDS011;3540;53.242;10.408;2023-07-22T14:08:30;4.33;;;3.70;;
6999;SDS011;3540;53.242;10.408;2023-07-22T14:10:56;6.40;;;4.00;;
6999;SDS011;3540;53.242;10.408;2023-07-22T14:13:21;4.00;;;3.63;;
6999;SDS011;3540;53.242;10.408;2023-07-22T14:15:47;4.33;;;3.50;;
6999;SDS011;3540;53.242;10.408;2023-07-22T14:18:13;4.20;;;3.13;;
6999;SDS011;3540;53.242;10.408;2023-07-22T14:20:42;6.10;;;4.13;;
6999;SDS011;3540;53.242;10.408;2023-07-22T14:23:11;4.27;;;3.63;;
6999;SDS011;3540;53.242;10.408;2023-07-22T14:25:37;4.27;;;3.50;;
6999;SDS011;3540;53.242;10.408;2023-07-22T14:28:02;7.20;;;3.27;;
6999;SDS011;3540;53.242;10.408;2023-07-22T14:30:28;6.17;;;3.30;;
6999;SDS011;3540;53.242;10.408;2023-07-22T14:32:54;5.77;;;3.60;;
6999;SDS011;3540;53.242;10.408;2023-07-22T14:35:20;3.63;;;3.30;;
6999;SDS011;3540;53.242;10.408;2023-07-22T14:37:46;3.93;;;3.33;;
6999;SDS011;3540;53.242;10.408;2023-07-22T14:40:12;4.00;;;3.40;;
6999;SDS011;3540;53.242;10.408;2023-07-22T14:42:38;5.27;;;3.40;;
6999;SDS011;3540;53.242;10.408;2023-07-22T14:45:03;3.57;;;3.07;;
6999;SDS011;3540;53.242;10.408;2023-07-22T14:47:30;4.03;;;3.20;;
6999;SDS011;3540;53.242;10.408;2023-07-22T14:49:56;4.47;;;3.27;;
6999;SDS011;3540;53.242;10.408;2023-07-22T14:52:21;4.00;;;3.60;;
6999;SDS011;3540;53.242;10.408;2023-07-22T14:54:48;6.10;;;3.60;;
6999;SDS011;3540;53.242;10.408;2023-07-22T14:57:14;3.63;;;3.33;;
6999;SDS011;3540;53.242;10.408;2023-07-22T14:59:42;5.47;;;4.00;;
6999;SDS011;3540;53.242;10.408;2023-07-22T15:02:08;5.50;;;3.77;;
6999;SDS011;3540;53.242;10.408;2023-07-22T15:04:34;5.97;;;3.87;;
6999;SDS011;3540;53.242;10.408;2023-07-22T15:06:59;5.57;;;4.00;;
6999;SDS011;3540;53.242;10.408;2023-07-22T15:09:25;5.57;;;3.93;;
6999;SDS011;3540;53.242;10.408;2023-07-22T15:11:51;5.63;;;3.80;;
6999;SDS011;3540;53.242;10.408;2023-07-22T15:14:17;4.23;;;3.70;;